KAST

Astoria Regional Airport

Astoria, Oregon, USA
METAR KAST 131010Z AUTO 18021G34KT 10SM -RA FEW023 OVC032 11/08 A3010 RMK AO2 PK WND 19034/1009 RAB00 P0000 T01060078
Observed Flight Rules
Dec-13 @ 10:10 UTC (41 minutes ago) Visual Flight Rules
Wind Visibility Clouds Conditions
180° at 21 knots
 Gusting to 34 knots
10 miles
  • Few at 2,300' AGL
  • Overcast at 3,200' AGL
  • Light Rain
Temperatures Readings Precipitation
Current 11°C / 52°F
Dewpoint 8°C / 46°F
Humidity 82%
Altimeter 30.1" Hg
Pressure 1019 hPa
Elevation 3
Current Rain 0.005
METAR KAST 131010Z AUTO 18021G34KT 10SM -RA FEW023 OVC032 11/08 A3010 RMK AO2 PK WND 19034/1009 RAB00 P0000 T01060078
Observed Flight Rules
Dec-13 @ 10:10 UTC
(41 minutes ago)
VFR
Wind Visibility
180° at 21 knots
 Gusting to 34 knots
10 miles
Clouds
  • Few at 2,300' AGL
  • Overcast at 3,200' AGL
Conditions
  • Light Rain
Temperature Dewpoint
11°C / 52°F 8°C / 46°F
Humidity Altimeter Pressure
82% 30.1" Hg 1019 hPa
Current Rain
0.005